createdAt,value
2018-07-03T00:00:59.656Z,1.53
2018-07-03T00:03:37.463Z,1.40
2018-07-03T00:06:08.537Z,1.30
2018-07-03T00:13:57.256Z,1.33
2018-07-03T00:16:32.288Z,1.43
2018-07-03T00:19:02.485Z,1.70
2018-07-03T00:21:31.938Z,1.70
2018-07-03T00:24:01.939Z,1.60
2018-07-03T00:26:31.411Z,1.50
2018-07-03T00:29:00.927Z,1.70
2018-07-03T00:31:30.475Z,1.53
2018-07-03T00:34:00.129Z,1.40
2018-07-03T00:36:30.891Z,1.50
2018-07-03T00:39:00.669Z,1.47
2018-07-03T00:41:31.027Z,1.30
2018-07-03T00:44:00.553Z,1.63
2018-07-03T00:46:40.188Z,1.60
2018-07-03T00:49:09.676Z,1.57
2018-07-03T00:51:42.209Z,1.40
2018-07-03T00:54:11.740Z,1.40
2018-07-03T00:56:41.763Z,1.40
2018-07-03T00:59:11.277Z,1.40
2018-07-03T01:01:41.212Z,1.53
2018-07-03T01:04:14.870Z,1.63
2018-07-03T01:06:49.629Z,1.40
2018-07-03T01:09:19.180Z,1.40
2018-07-03T01:11:49.013Z,1.57
2018-07-03T01:14:37.822Z,1.50
2018-07-03T01:17:07.610Z,1.30
2018-07-03T01:19:37.149Z,1.30
2018-07-03T01:22:08.026Z,1.60
2018-07-03T01:24:38.061Z,1.57
2018-07-03T01:27:07.592Z,1.43
2018-07-03T01:29:37.251Z,1.50
2018-07-03T01:32:08.052Z,1.70
2018-07-03T01:34:38.437Z,1.60
2018-07-03T01:37:08.206Z,1.47
2018-07-03T01:39:37.882Z,1.50
2018-07-03T01:42:12.346Z,1.80
2018-07-03T01:44:42.384Z,1.87
2018-07-03T01:53:00.721Z,1.77
2018-07-03T01:55:30.928Z,1.80
2018-07-03T01:58:01.045Z,1.60
2018-07-03T02:00:30.678Z,1.50
2018-07-03T02:03:01.070Z,1.63
2018-07-03T02:05:37.544Z,1.87
2018-07-03T02:08:07.479Z,1.70
2018-07-03T02:10:44.153Z,1.80
2018-07-03T02:13:13.808Z,1.80
2018-07-03T02:15:43.761Z,1.60
2018-07-03T02:18:13.278Z,2.10
2018-07-03T02:20:49.461Z,1.70
2018-07-03T02:23:19.956Z,1.77
2018-07-03T02:26:00.825Z,1.60
2018-07-03T02:28:30.771Z,1.90
2018-07-03T02:31:03.036Z,1.80
2018-07-03T02:33:33.249Z,1.83
2018-07-03T02:36:02.761Z,1.83
2018-07-03T02:38:34.105Z,1.80
2018-07-03T02:41:04.121Z,2.00
2018-07-03T02:43:33.851Z,1.70
2018-07-03T02:46:09.832Z,1.70
2018-07-03T02:48:39.427Z,1.60
2018-07-03T02:51:11.491Z,1.63
2018-07-03T02:53:41.068Z,1.80
2018-07-03T02:56:10.673Z,1.77
2018-07-03T02:58:40.877Z,1.77
2018-07-03T03:01:24.480Z,1.77
2018-07-03T03:03:55.445Z,1.90
2018-07-03T03:06:26.021Z,1.80
2018-07-03T03:08:59.320Z,1.90
2018-07-03T03:11:31.356Z,1.93
2018-07-03T03:14:16.384Z,2.00
2018-07-03T03:16:46.141Z,2.13
2018-07-03T03:19:16.021Z,2.03
2018-07-03T03:21:46.046Z,2.07
2018-07-03T03:24:15.653Z,1.80
2018-07-03T03:26:46.275Z,1.90
2018-07-03T03:29:25.927Z,1.97
2018-07-03T03:32:07.637Z,1.70
2018-07-03T03:34:39.693Z,1.80
2018-07-03T03:37:21.308Z,2.00
2018-07-03T03:42:38.853Z,1.90
2018-07-03T03:45:13.834Z,2.10
2018-07-03T03:47:44.496Z,2.03
2018-07-03T03:50:20.867Z,1.83
2018-07-03T03:53:00.837Z,2.40
2018-07-03T03:55:40.785Z,2.53
2018-07-03T03:58:21.152Z,2.10
2018-07-03T04:00:57.425Z,2.07
2018-07-03T04:03:46.460Z,2.70
2018-07-03T04:06:19.445Z,2.00
2018-07-03T04:09:01.378Z,1.90
2018-07-03T04:11:33.544Z,1.90
2018-07-03T04:14:19.469Z,1.80
2018-07-03T04:16:54.018Z,2.03
2018-07-03T04:19:36.624Z,2.20
2018-07-03T04:22:21.092Z,2.10
2018-07-03T04:24:59.693Z,2.30
2018-07-03T04:27:43.330Z,2.33
2018-07-03T04:33:08.199Z,2.43
2018-07-03T04:35:46.052Z,2.30
2018-07-03T04:38:22.714Z,1.90
2018-07-03T04:40:58.113Z,2.17
2018-07-03T04:43:27.787Z,2.10
2018-07-03T04:45:57.601Z,2.30
2018-07-03T04:48:27.909Z,2.23
2018-07-03T04:50:59.694Z,2.10
2018-07-03T04:53:29.312Z,2.20
2018-07-03T04:55:59.155Z,2.20
2018-07-03T04:58:29.531Z,1.90
2018-07-03T05:00:59.348Z,1.97
2018-07-03T05:03:29.153Z,2.27
2018-07-03T05:05:58.767Z,2.17
2018-07-03T05:08:28.546Z,2.17
2018-07-03T05:10:58.189Z,2.40
2018-07-03T05:13:27.990Z,2.10
2018-07-03T05:15:57.508Z,2.03
2018-07-03T05:18:33.042Z,2.20
2018-07-03T05:21:02.993Z,2.40
2018-07-03T05:23:33.317Z,1.87
2018-07-03T05:26:04.528Z,1.80
2018-07-03T05:28:34.797Z,2.70
2018-07-03T05:31:04.425Z,1.83
2018-07-03T05:33:33.913Z,1.93
2018-07-03T05:36:04.883Z,2.40
2018-07-03T05:38:34.430Z,2.03
2018-07-03T05:41:04.060Z,2.20
2018-07-03T05:43:33.807Z,2.47
2018-07-03T05:46:03.585Z,2.10
2018-07-03T05:48:33.043Z,2.13
2018-07-03T05:51:10.106Z,2.43
2018-07-03T05:53:39.641Z,2.70
2018-07-03T05:56:10.387Z,2.13
2018-07-03T05:58:40.537Z,2.53
2018-07-03T06:01:10.027Z,2.50
2018-07-03T06:03:39.492Z,2.30
2018-07-03T06:06:09.152Z,2.30
2018-07-03T06:08:38.689Z,2.70
2018-07-03T06:11:08.162Z,2.33
2018-07-03T06:13:38.931Z,2.50
2018-07-03T06:16:08.640Z,2.37
2018-07-03T06:18:38.365Z,2.23
2018-07-03T06:21:09.286Z,2.13
2018-07-03T06:23:38.890Z,2.70
2018-07-03T06:26:08.648Z,2.40
2018-07-03T06:28:38.519Z,2.73
2018-07-03T06:31:08.224Z,2.73
2018-07-03T06:33:37.659Z,2.27
2018-07-03T06:36:09.076Z,2.60
2018-07-03T06:38:38.550Z,2.67
2018-07-03T06:41:08.112Z,2.33
2018-07-03T06:43:39.743Z,2.27
2018-07-03T06:46:09.793Z,2.37
2018-07-03T06:48:39.421Z,2.47
2018-07-03T06:51:09.244Z,2.27
2018-07-03T06:53:38.894Z,2.20
2018-07-03T06:56:08.630Z,2.23
2018-07-03T06:58:38.496Z,2.27
2018-07-03T07:01:08.500Z,2.17
2018-07-03T07:03:37.970Z,2.07
2018-07-03T07:06:07.705Z,2.20
2018-07-03T07:08:38.934Z,1.67
2018-07-03T07:11:08.910Z,2.27
2018-07-03T07:13:38.577Z,1.90
2018-07-03T07:16:09.388Z,2.27
2018-07-03T07:18:38.965Z,1.90
2018-07-03T07:21:08.828Z,2.10
2018-07-03T07:23:38.589Z,2.00
2018-07-03T07:26:08.094Z,2.20
2018-07-03T07:28:37.549Z,2.20
2018-07-03T07:31:08.448Z,2.23
2018-07-03T07:36:18.280Z,2.13
2018-07-03T07:38:48.120Z,2.07
2018-07-03T07:41:18.058Z,1.70
2018-07-03T07:43:48.718Z,1.67
2018-07-03T07:46:18.771Z,2.40
2018-07-03T07:48:48.569Z,2.30
2018-07-03T07:51:40.072Z,2.00
2018-07-03T07:54:10.012Z,1.83
2018-07-03T07:56:40.416Z,1.70
2018-07-03T08:02:03.844Z,1.70
2018-07-03T08:04:35.914Z,1.80
2018-07-03T08:07:06.431Z,2.00
2018-07-03T08:09:37.395Z,1.97
2018-07-03T08:12:07.012Z,1.93
2018-07-03T08:14:38.207Z,1.77
2018-07-03T08:17:08.666Z,1.87
2018-07-03T08:19:39.547Z,2.20
2018-07-03T08:22:09.236Z,1.87
2018-07-03T08:24:39.080Z,1.90
2018-07-03T08:27:08.572Z,1.67
2018-07-03T08:29:38.520Z,1.90
2018-07-03T08:32:08.456Z,2.57
2018-07-03T08:34:38.027Z,1.60
2018-07-03T08:37:08.565Z,2.27
2018-07-03T08:39:38.215Z,2.13
2018-07-03T08:42:08.694Z,1.97
2018-07-03T08:44:38.686Z,1.60
2018-07-03T08:47:08.710Z,1.87
2018-07-03T08:49:38.416Z,2.10
2018-07-03T08:52:10.829Z,1.80
2018-07-03T08:54:41.120Z,1.97
2018-07-03T08:57:10.842Z,1.60
2018-07-03T08:59:41.008Z,1.63
2018-07-03T09:02:12.580Z,1.90
2018-07-03T09:04:42.891Z,1.87
2018-07-03T09:09:54.918Z,1.70
2018-07-03T09:12:25.726Z,1.70
2018-07-03T09:14:55.425Z,1.73
2018-07-03T09:17:30.564Z,1.50
2018-07-03T09:20:04.762Z,1.23
2018-07-03T09:22:35.101Z,1.43
2018-07-03T09:25:10.591Z,1.20
2018-07-03T09:27:41.541Z,1.23
2018-07-03T09:30:11.617Z,1.20
2018-07-03T09:32:47.516Z,1.10
2018-07-03T09:35:18.513Z,1.23
2018-07-03T09:37:50.557Z,1.20
2018-07-03T09:40:20.664Z,1.50
2018-07-03T09:42:50.242Z,1.20
2018-07-03T09:45:21.349Z,1.30
2018-07-03T09:47:53.217Z,1.10
2018-07-03T09:50:23.065Z,1.30
2018-07-03T09:52:52.933Z,1.47
2018-07-03T09:55:23.564Z,1.10
2018-07-03T09:57:53.914Z,1.20
2018-07-03T10:00:28.489Z,1.40
2018-07-03T10:03:00.331Z,1.33
2018-07-03T10:05:30.270Z,1.37
2018-07-03T10:08:00.305Z,1.20
2018-07-03T10:10:34.326Z,1.33
2018-07-03T10:13:04.273Z,1.10
2018-07-03T10:15:33.660Z,1.00
2018-07-03T10:18:15.024Z,1.30
2018-07-03T10:20:45.728Z,1.00
2018-07-03T10:23:15.143Z,4.43
2018-07-03T10:25:45.003Z,2.40
2018-07-03T10:28:14.708Z,1.37
2018-07-03T10:30:44.950Z,1.30
2018-07-03T10:33:14.912Z,1.10
2018-07-03T10:35:45.414Z,1.10
2018-07-03T10:38:15.256Z,1.27
2018-07-03T10:40:45.072Z,1.37
2018-07-03T10:43:14.538Z,1.00
2018-07-03T10:45:44.487Z,1.57
2018-07-03T10:48:15.526Z,1.10
2018-07-03T10:50:45.182Z,1.53
2018-07-03T10:53:15.041Z,1.77
2018-07-03T10:55:45.063Z,1.30
2018-07-03T10:58:14.812Z,1.50
2018-07-03T11:00:44.480Z,1.40
2018-07-03T11:03:14.304Z,1.40
2018-07-03T11:05:44.703Z,1.60
2018-07-03T11:08:14.690Z,1.73
2018-07-03T11:10:45.867Z,1.20
2018-07-03T11:13:15.433Z,1.47
2018-07-03T11:15:44.888Z,1.43
2018-07-03T11:18:14.987Z,1.57
2018-07-03T11:20:44.518Z,1.80
2018-07-03T11:23:14.531Z,2.00
2018-07-03T11:25:48.272Z,1.50
2018-07-03T11:28:18.777Z,1.30
2018-07-03T11:30:48.450Z,1.30
2018-07-03T11:33:18.303Z,1.50
2018-07-03T11:35:48.020Z,2.00
2018-07-03T11:38:19.483Z,1.50
2018-07-03T11:40:49.427Z,1.70
2018-07-03T11:43:19.066Z,1.77
2018-07-03T11:45:48.583Z,1.73
2018-07-03T11:48:20.148Z,2.10
2018-07-03T11:50:49.743Z,2.77
2018-07-03T11:53:19.344Z,2.47
2018-07-03T11:55:54.454Z,2.20
2018-07-03T11:58:24.296Z,2.50
2018-07-03T12:00:54.257Z,2.20
2018-07-03T12:03:26.538Z,2.50
2018-07-03T12:05:56.760Z,2.93
2018-07-03T12:08:26.814Z,2.60
2018-07-03T12:10:59.369Z,2.73
2018-07-03T12:13:29.358Z,2.80
2018-07-03T12:15:58.996Z,2.93
2018-07-03T12:18:33.693Z,2.50
2018-07-03T12:21:03.437Z,2.73
2018-07-03T12:23:35.287Z,2.60
2018-07-03T12:26:05.024Z,2.60
2018-07-03T12:28:36.017Z,2.80
2018-07-03T12:31:05.886Z,2.57
2018-07-03T12:33:35.944Z,2.77
2018-07-03T12:36:08.621Z,2.50
2018-07-03T12:38:38.991Z,2.77
2018-07-03T12:41:08.946Z,2.60
2018-07-03T12:43:45.903Z,3.17
2018-07-03T12:46:16.473Z,3.10
2018-07-03T12:48:47.895Z,2.67
2018-07-03T12:51:22.285Z,2.77
2018-07-03T12:53:52.469Z,2.77
2018-07-03T12:59:09.642Z,3.70
2018-07-03T13:01:40.018Z,2.70
2018-07-03T13:04:15.137Z,2.97
2018-07-03T13:09:43.174Z,2.77
2018-07-03T13:12:13.304Z,2.53
2018-07-03T13:14:48.818Z,2.80
2018-07-03T13:17:24.939Z,2.70
2018-07-03T13:20:04.689Z,2.73
2018-07-03T13:22:35.010Z,3.03
2018-07-03T13:25:11.702Z,3.13
2018-07-03T13:30:45.201Z,2.50
2018-07-03T13:33:31.873Z,2.20
2018-07-03T13:36:06.262Z,2.30
2018-07-03T13:38:36.047Z,2.00
2018-07-03T13:41:13.582Z,2.30
2018-07-03T13:43:43.535Z,2.20
2018-07-03T13:46:14.256Z,2.40
2018-07-03T13:48:47.066Z,2.30
2018-07-03T13:51:17.297Z,1.97
2018-07-03T13:53:49.286Z,2.10
2018-07-03T13:56:24.489Z,2.30
2018-07-03T14:10:36.089Z,1.90
2018-07-03T14:13:08.808Z,1.77
2018-07-03T14:15:38.898Z,1.80
2018-07-03T14:18:09.042Z,2.00
2018-07-03T14:20:45.652Z,2.00
2018-07-03T14:23:22.461Z,2.20
2018-07-03T14:25:58.391Z,1.80
2018-07-03T14:28:30.171Z,1.90
2018-07-03T14:31:04.054Z,1.70
2018-07-03T14:36:12.338Z,1.97
2018-07-03T14:38:47.588Z,1.90
2018-07-03T14:41:18.193Z,1.93
2018-07-03T14:43:48.670Z,1.90
2018-07-03T14:46:28.393Z,2.03
2018-07-03T14:54:43.186Z,2.03
2018-07-03T14:59:57.384Z,2.03
2018-07-03T15:02:33.070Z,2.40
2018-07-03T15:07:51.764Z,2.27
2018-07-03T15:10:22.864Z,2.10
2018-07-03T15:12:55.463Z,1.80
2018-07-03T15:15:38.301Z,2.60
2018-07-03T15:18:17.281Z,2.13
2018-07-03T15:20:48.640Z,1.80
2018-07-03T15:26:13.279Z,1.70
2018-07-03T15:28:50.578Z,1.90
2018-07-03T15:31:20.511Z,1.93
2018-07-03T15:33:58.842Z,1.90
2018-07-03T15:36:33.896Z,2.17
2018-07-03T15:39:06.156Z,1.90
2018-07-03T15:41:40.496Z,2.10
2018-07-03T15:44:21.427Z,1.80
2018-07-03T15:46:52.153Z,1.93
2018-07-03T15:49:23.974Z,2.10
2018-07-03T15:51:59.354Z,2.10
2018-07-03T15:54:45.867Z,2.03
2018-07-03T15:57:25.726Z,1.70
2018-07-03T16:08:32.876Z,1.87
2018-07-03T16:11:06.329Z,1.97
2018-07-03T16:13:41.845Z,2.23
2018-07-03T16:16:12.728Z,1.97
2018-07-03T16:18:45.539Z,2.00
2018-07-03T16:22:36.226Z,1.90
2018-07-03T16:30:57.482Z,2.33
2018-07-03T16:33:30.801Z,2.00
2018-07-03T16:36:02.621Z,2.17
2018-07-03T16:38:44.147Z,1.80
2018-07-03T16:41:14.506Z,5.37
2018-07-03T16:43:47.118Z,2.33
2018-07-03T16:46:18.904Z,2.17
2018-07-03T16:48:50.409Z,2.10
2018-07-03T16:51:21.663Z,1.77
2018-07-03T16:53:58.506Z,1.80
2018-07-03T16:56:28.568Z,2.10
2018-07-03T16:59:00.629Z,2.10
2018-07-03T17:01:31.884Z,2.10
2018-07-03T17:04:07.459Z,2.10
2018-07-03T17:06:40.094Z,1.77
2018-07-03T17:09:17.930Z,2.77
2018-07-03T17:11:48.031Z,2.43
2018-07-03T17:17:06.269Z,2.30
2018-07-03T17:19:43.012Z,3.27
2018-07-03T17:22:14.490Z,2.30
2018-07-03T17:24:49.361Z,4.57
2018-07-03T17:27:21.742Z,2.10
2018-07-03T17:29:51.533Z,2.20
2018-07-03T17:32:22.539Z,2.23
2018-07-03T17:34:52.357Z,2.53
2018-07-03T17:45:36.082Z,2.30
2018-07-03T17:51:01.795Z,2.30
2018-07-03T17:53:31.917Z,2.33
2018-07-03T17:56:01.836Z,2.33
2018-07-03T17:58:34.312Z,2.40
2018-07-03T18:01:04.216Z,2.20
2018-07-03T18:03:34.136Z,2.50
2018-07-03T18:06:04.526Z,2.20
2018-07-03T18:08:35.267Z,2.40
2018-07-03T18:11:06.724Z,2.07
2018-07-03T18:13:36.458Z,2.87
2018-07-03T18:16:06.913Z,2.53
2018-07-03T18:18:58.811Z,2.50
2018-07-03T18:21:30.314Z,2.30
2018-07-03T18:24:00.173Z,2.60
2018-07-03T18:26:31.464Z,2.37
2018-07-03T18:29:01.233Z,2.20
2018-07-03T18:31:31.214Z,2.40
2018-07-03T18:34:00.970Z,2.67
2018-07-03T18:36:49.611Z,3.20
2018-07-03T18:39:19.375Z,5.10
2018-07-03T18:41:50.945Z,2.93
2018-07-03T18:44:21.004Z,3.17
2018-07-03T18:54:10.132Z,3.00
2018-07-03T18:56:39.893Z,2.70
2018-07-03T18:59:13.938Z,2.67
2018-07-03T19:07:15.121Z,2.17
2018-07-03T19:09:45.292Z,2.70
2018-07-03T19:12:15.833Z,2.77
2018-07-03T19:14:45.989Z,2.60
2018-07-03T19:17:17.504Z,2.80
2018-07-03T19:19:48.174Z,3.30
2018-07-03T19:22:18.614Z,2.90
2018-07-03T19:24:48.896Z,2.93
2018-07-03T19:27:18.834Z,3.70
2018-07-03T19:29:48.921Z,4.30
2018-07-03T19:32:19.510Z,2.90
2018-07-03T19:34:50.293Z,2.70
2018-07-03T19:37:20.911Z,2.70
2018-07-03T19:39:51.787Z,3.03
2018-07-03T19:42:21.879Z,3.33
2018-07-03T19:44:51.886Z,2.83
2018-07-03T19:47:22.724Z,2.93
2018-07-03T19:49:53.548Z,5.50
2018-07-03T19:52:29.056Z,3.13
2018-07-03T19:55:01.961Z,3.37
2018-07-03T19:57:36.282Z,3.47
2018-07-03T20:00:06.737Z,2.90
2018-07-03T20:02:38.181Z,3.13
2018-07-03T20:05:08.719Z,3.30
2018-07-03T20:07:44.873Z,3.43
2018-07-03T20:10:15.078Z,2.90
2018-07-03T20:24:57.499Z,3.10
2018-07-03T20:34:41.216Z,3.43
2018-07-03T20:37:20.103Z,4.10
2018-07-03T20:39:58.705Z,3.77
2018-07-03T20:42:38.974Z,3.87
2018-07-03T20:48:04.454Z,3.33
2018-07-03T20:50:36.217Z,3.80
2018-07-03T20:53:16.024Z,3.73
2018-07-03T20:55:47.882Z,3.93
2018-07-03T20:58:21.743Z,3.57
2018-07-03T21:00:54.059Z,4.13
2018-07-03T21:03:25.788Z,5.43
2018-07-03T21:08:52.807Z,3.83
2018-07-03T21:14:15.648Z,4.67
2018-07-03T21:38:41.223Z,4.27
2018-07-03T21:41:11.893Z,4.07
2018-07-03T21:43:44.956Z,4.37
2018-07-03T21:46:18.014Z,5.57
2018-07-03T21:48:49.556Z,3.80
2018-07-03T21:51:22.588Z,4.93
2018-07-03T21:53:55.026Z,4.90
2018-07-03T21:56:26.372Z,5.23
2018-07-03T21:58:57.612Z,4.33
2018-07-03T22:01:29.227Z,4.33
2018-07-03T22:03:59.225Z,4.40
2018-07-03T22:06:32.170Z,4.20
2018-07-03T22:09:15.205Z,4.40
2018-07-03T22:11:55.764Z,4.40
2018-07-03T22:17:07.677Z,4.60
2018-07-03T22:19:38.619Z,4.37
2018-07-03T22:22:10.465Z,4.40
2018-07-03T22:24:41.728Z,4.20
2018-07-03T22:27:12.944Z,4.27
2018-07-03T22:29:43.463Z,4.10
2018-07-03T22:32:20.786Z,4.17
2018-07-03T22:34:55.884Z,4.70
2018-07-03T22:37:27.735Z,4.90
2018-07-03T22:39:59.005Z,4.60
2018-07-03T22:42:30.025Z,4.70
2018-07-03T22:45:00.655Z,3.93
2018-07-03T22:47:32.204Z,4.20
2018-07-03T22:50:03.186Z,4.20
2018-07-03T22:52:39.326Z,4.20
2018-07-03T22:55:15.475Z,3.90
2018-07-03T22:57:47.092Z,4.50
2018-07-03T23:00:18.818Z,4.10
2018-07-03T23:05:42.837Z,4.03
2018-07-03T23:08:20.379Z,4.67
2018-07-03T23:10:51.059Z,4.10
2018-07-03T23:13:21.770Z,4.70
2018-07-03T23:15:56.887Z,4.33
2018-07-03T23:18:27.126Z,4.13
2018-07-03T23:20:57.689Z,4.13
2018-07-03T23:23:33.610Z,4.40
2018-07-03T23:26:08.757Z,4.37
2018-07-03T23:28:39.648Z,4.53
2018-07-03T23:31:17.717Z,4.23
2018-07-03T23:33:51.123Z,4.27
2018-07-03T23:36:21.358Z,4.30
2018-07-03T23:38:51.883Z,4.57
2018-07-03T23:41:27.555Z,4.13
2018-07-03T23:43:58.523Z,4.20
2018-07-03T23:46:39.754Z,4.23
2018-07-03T23:49:21.445Z,4.37
2018-07-03T23:52:07.369Z,4.33
2018-07-03T23:54:48.453Z,4.57
2018-07-03T23:57:31.079Z,4.70
